Time;durP1;ratioP1;P1;durP2;ratioP2;P2;SDS_P1;SDS_P2;PMS_P1;PMS_P2;Temp;Humidity;BMP_temperature;BMP_pressure;BME280_temperature;BME280_humidity;BME280_pressure;Samples;Min_cycle;Max_cycle;Signal;HPM_P1;HPM_P2
2023/04/22 00:01:49;;;;;;;4.60;2.30;;;21.90;54.50;;;;;;10494650;28;20076;-25
2023/04/22 00:06:52;;;;;;;4.57;2.30;;;21.80;54.50;;;;;;10497334;28;20049;-24
2023/04/22 00:11:54;;;;;;;5.53;2.85;;;21.80;54.70;;;;;;10475054;28;20106;-23
2023/04/22 00:16:56;;;;;;;3.83;2.30;;;21.80;54.70;;;;;;10491706;28;20063;-25
2023/04/22 00:22:00;;;;;;;5.05;3.17;;;21.70;54.60;;;;;;10482289;28;20171;-24
2023/04/22 00:27:02;;;;;;;4.95;3.20;;;21.70;54.80;;;;;;10499181;28;20550;-24
2023/04/22 00:32:04;;;;;;;4.07;2.30;;;21.60;54.90;;;;;;10493997;28;20052;-33
2023/04/22 00:37:07;;;;;;;5.25;2.33;;;21.60;55.00;;;;;;10499993;28;20116;-23
2023/04/22 00:42:09;;;;;;;4.90;2.25;;;21.60;55.00;;;;;;10506664;28;20102;-24
2023/04/22 00:47:12;;;;;;;5.00;2.40;;;21.50;55.10;;;;;;10491149;28;20481;-25
2023/04/22 00:52:15;;;;;;;4.45;2.55;;;21.50;55.20;;;;;;10487688;28;20485;-25
2023/04/22 00:57:18;;;;;;;6.90;2.30;;;21.40;55.20;;;;;;10497248;28;20154;-24
2023/04/22 01:02:20;;;;;;;5.05;2.40;;;21.40;55.20;;;;;;10497111;28;20497;-24
2023/04/22 01:07:23;;;;;;;7.53;2.80;;;21.40;55.40;;;;;;10486491;28;20492;-23
2023/04/22 01:12:25;;;;;;;4.80;2.25;;;21.40;55.40;;;;;;10514656;28;20056;-23
2023/04/22 01:17:27;;;;;;;5.50;2.70;;;21.30;55.40;;;;;;10488382;28;20082;-24
2023/04/22 01:22:35;;;;;;;3.53;2.40;;;21.30;55.50;;;;;;10505402;28;20380;-24
2023/04/22 01:27:39;;;;;;;3.95;2.45;;;21.20;55.60;;;;;;10500411;28;20082;-24
2023/04/22 01:32:41;;;;;;;3.08;1.92;;;21.20;55.50;;;;;;10489462;28;20152;-23
2023/04/22 01:37:44;;;;;;;4.85;2.47;;;21.20;55.70;;;;;;10482494;28;20043;-24
2023/04/22 01:42:47;;;;;;;3.80;2.33;;;21.20;55.70;;;;;;10481447;28;20151;-24
2023/04/22 01:47:49;;;;;;;3.72;2.47;;;21.10;55.70;;;;;;10492649;28;20131;-24
2023/04/22 01:52:51;;;;;;;3.08;2.53;;;21.10;55.70;;;;;;10477190;28;20320;-24
2023/04/22 01:57:55;;;;;;;4.25;2.47;;;21.10;55.80;;;;;;10481870;28;20504;-24
2023/04/22 02:02:56;;;;;;;4.40;2.65;;;21.00;55.90;;;;;;10473444;28;20047;-26
2023/04/22 02:07:58;;;;;;;5.40;2.53;;;21.00;55.80;;;;;;10490987;28;20068;-23
2023/04/22 02:13:01;;;;;;;2.85;2.10;;;20.90;56.00;;;;;;10490815;28;20596;-24
2023/04/22 02:18:03;;;;;;;4.15;2.15;;;20.90;56.00;;;;;;10484303;28;20603;-24
2023/04/22 02:23:06;;;;;;;4.85;2.97;;;20.90;56.00;;;;;;10489314;28;20093;-24
2023/04/22 02:28:09;;;;;;;;;;;20.80;56.10;;;;;;10494968;28;20568;-23
2023/04/22 02:33:11;;;;;;;3.92;2.20;;;20.80;56.10;;;;;;10482747;28;20035;-23
2023/04/22 02:38:12;;;;;;;3.25;2.05;;;20.70;56.20;;;;;;10492723;28;20549;-24
2023/04/22 02:43:16;;;;;;;6.57;2.50;;;20.70;56.30;;;;;;10490971;28;20071;-23
2023/04/22 02:48:17;;;;;;;3.60;2.40;;;20.60;56.20;;;;;;10490284;28;20146;-24
2023/04/22 02:53:19;;;;;;;5.60;2.40;;;20.70;56.30;;;;;;10490630;28;20167;-22
2023/04/22 02:58:23;;;;;;;3.47;2.00;;;20.60;56.20;;;;;;10476489;28;20903;-24
2023/04/22 03:03:24;;;;;;;4.38;2.40;;;20.60;56.30;;;;;;10487943;28;20072;-23
2023/04/22 03:08:26;;;;;;;4.15;2.58;;;20.60;56.40;;;;;;10500287;28;20139;-24
2023/04/22 03:13:29;;;;;;;3.40;2.22;;;20.50;56.50;;;;;;10488354;28;20484;-23
2023/04/22 03:18:31;;;;;;;6.68;2.42;;;20.50;56.50;;;;;;10482762;28;20773;-24
2023/04/22 03:23:33;;;;;;;4.28;2.72;;;20.50;56.60;;;;;;10485142;28;20120;-24
2023/04/22 03:28:36;;;;;;;3.58;2.25;;;20.40;56.50;;;;;;10483460;28;20054;-23
2023/04/22 03:33:38;;;;;;;3.60;2.22;;;20.40;56.40;;;;;;10488294;28;20637;-23
2023/04/22 03:38:40;;;;;;;3.67;2.15;;;20.40;56.40;;;;;;10495521;28;20485;-23
2023/04/22 03:43:43;;;;;;;5.18;2.47;;;20.30;56.50;;;;;;10487499;28;20086;-24
2023/04/22 03:48:45;;;;;;;4.00;2.47;;;20.30;56.50;;;;;;10495853;28;20044;-23
2023/04/22 03:53:47;;;;;;;6.13;2.55;;;20.30;56.40;;;;;;10484112;28;20076;-23
2023/04/22 03:58:50;;;;;;;6.32;2.65;;;20.30;56.50;;;;;;10506410;28;20531;-23
2023/04/22 04:03:52;;;;;;;4.72;2.28;;;20.20;56.50;;;;;;10472918;28;20607;-25
2023/04/22 04:08:54;;;;;;;5.95;2.30;;;20.20;56.50;;;;;;10477675;28;20126;-23
2023/04/22 04:13:57;;;;;;;2.25;1.95;;;20.20;56.70;;;;;;10491519;28;20052;-23
2023/04/22 04:18:59;;;;;;;6.28;2.65;;;20.20;56.40;;;;;;10503735;28;20070;-23
2023/04/22 04:24:01;;;;;;;3.38;2.30;;;20.20;57.10;;;;;;10483900;28;20055;-23
2023/04/22 04:29:05;;;;;;;4.15;2.13;;;20.20;56.50;;;;;;10487845;28;20471;-22
2023/04/22 04:34:07;;;;;;;4.97;2.60;;;20.10;56.50;;;;;;10484755;28;20490;-23
2023/04/22 04:39:09;;;;;;;2.92;2.28;;;20.10;56.50;;;;;;10492402;28;20405;-24
2023/04/22 04:44:12;;;;;;;2.90;2.05;;;20.10;56.50;;;;;;10509456;28;20044;-24
2023/04/22 04:49:14;;;;;;;2.80;2.20;;;20.10;56.50;;;;;;10498788;28;20097;-25
2023/04/22 04:54:16;;;;;;;3.28;2.45;;;20.10;56.50;;;;;;10497745;28;20059;-23
2023/04/22 04:59:20;;;;;;;4.65;2.65;;;20.00;56.40;;;;;;10482407;28;20060;-23
2023/04/22 05:04:22;;;;;;;3.75;2.47;;;20.00;56.40;;;;;;10487393;28;20068;-24
2023/04/22 05:09:24;;;;;;;3.40;2.22;;;20.00;56.50;;;;;;10487391;28;20120;-24
2023/04/22 05:14:27;;;;;;;5.80;2.67;;;20.00;56.40;;;;;;10483588;28;20091;-23
2023/04/22 05:19:29;;;;;;;3.53;2.67;;;20.00;56.10;;;;;;10482200;28;20040;-26
2023/04/22 05:24:30;;;;;;;3.25;2.50;;;20.00;56.20;;;;;;10496915;28;20135;-24
2023/04/22 05:29:34;;;;;;;4.55;3.20;;;20.00;56.00;;;;;;10501876;28;20497;-24
2023/04/22 05:34:36;;;;;;;4.50;3.17;;;20.10;55.90;;;;;;10497482;28;20052;-24
2023/04/22 05:39:38;;;;;;;5.18;3.05;;;20.10;55.80;;;;;;10490195;28;20488;-22
2023/04/22 05:44:41;;;;;;;6.22;3.15;;;20.10;56.20;;;;;;10494848;28;20117;-23
2023/04/22 05:49:43;;;;;;;6.03;3.55;;;20.10;55.60;;;;;;10512356;28;20044;-24
2023/04/22 05:54:45;;;;;;;6.50;3.78;;;20.20;55.60;;;;;;10488945;28;20103;-24
2023/04/22 05:59:48;;;;;;;4.47;3.15;;;20.20;55.60;;;;;;10484686;28;20497;-24
2023/04/22 06:04:50;;;;;;;8.25;4.38;;;20.20;55.50;;;;;;10496744;28;20131;-24
2023/04/22 06:09:52;;;;;;;5.65;3.45;;;20.20;55.50;;;;;;10502466;28;20076;-23
2023/04/22 06:14:55;;;;;;;5.70;3.67;;;20.20;55.60;;;;;;10504233;28;20080;-24
2023/04/22 06:19:57;;;;;;;5.55;3.85;;;20.20;55.60;;;;;;10488106;28;20132;-24
2023/04/22 06:24:59;;;;;;;5.38;3.50;;;20.20;55.60;;;;;;10492166;28;20107;-24
2023/04/22 06:30:02;;;;;;;9.30;5.07;;;20.20;55.70;;;;;;10490216;28;20556;-24
2023/04/22 06:35:05;;;;;;;5.68;3.92;;;20.30;55.80;;;;;;10489797;28;20144;-23
2023/04/22 06:40:08;;;;;;;5.15;3.25;;;20.30;55.90;;;;;;10490049;28;20066;-23
2023/04/22 06:45:11;;;;;;;6.03;3.63;;;20.30;56.00;;;;;;10480037;28;20044;-21
2023/04/22 06:50:13;;;;;;;5.43;3.83;;;20.30;56.00;;;;;;10485469;28;20233;-25
2023/04/22 06:55:15;;;;;;;4.45;3.65;;;20.30;56.10;;;;;;10486403;28;20148;-24
2023/04/22 07:00:18;;;;;;;6.60;3.85;;;20.40;56.10;;;;;;10470840;28;20068;-25
2023/04/22 07:05:20;;;;;;;9.13;3.67;;;20.40;56.30;;;;;;10483813;28;20501;-20
2023/04/22 07:10:22;;;;;;;5.10;2.90;;;20.40;56.20;;;;;;10478029;28;20084;-23
2023/04/22 07:15:25;;;;;;;5.90;3.38;;;20.40;56.30;;;;;;10484632;28;20053;-25
2023/04/22 07:20:28;;;;;;;6.75;3.38;;;20.40;56.30;;;;;;10485169;28;20063;-22
2023/04/22 07:25:29;;;;;;;4.35;3.20;;;20.50;56.30;;;;;;10485745;28;20120;-22
2023/04/22 07:30:33;;;;;;;4.28;2.90;;;20.30;56.30;;;;;;10480735;28;20036;-23
2023/04/22 07:35:35;;;;;;;3.88;2.58;;;20.20;57.00;;;;;;10485680;28;20056;-25
2023/04/22 07:40:37;;;;;;;4.93;2.92;;;20.10;57.20;;;;;;10478420;28;20048;-29
2023/04/22 07:45:40;;;;;;;6.60;3.00;;;19.90;57.80;;;;;;10498693;28;20099;-23
2023/04/22 07:50:42;;;;;;;4.57;3.25;;;19.90;58.00;;;;;;10495706;28;20131;-24
2023/04/22 07:55:43;;;;;;;9.70;3.28;;;19.90;58.30;;;;;;10489500;28;20143;-24
2023/04/22 08:00:47;;;;;;;5.53;2.90;;;19.90;58.50;;;;;;10478339;28;20492;-23
2023/04/22 08:05:49;;;;;;;5.45;3.10;;;20.20;57.80;;;;;;10474289;28;20041;-25
2023/04/22 08:10:50;;;;;;;5.57;2.83;;;20.50;57.30;;;;;;10478396;28;20131;-23
2023/04/22 08:15:54;;;;;;;14.68;3.95;;;20.40;57.30;;;;;;10493941;28;20048;-23
2023/04/22 08:20:55;;;;;;;13.88;5.10;;;20.00;58.90;;;;;;10465852;28;20098;-23
2023/04/22 08:25:57;;;;;;;21.08;5.13;;;19.90;59.50;;;;;;10469794;28;20124;-24
2023/04/22 08:31:02;;;;;;;12.88;5.93;;;19.90;59.40;;;;;;10471473;28;20135;-24
2023/04/22 08:36:04;;;;;;;20.60;6.45;;;19.90;59.30;;;;;;10484881;28;20450;-25
2023/04/22 08:41:06;;;;;;;;;;;20.60;58.10;;;;;;10479768;28;20043;-23
2023/04/22 08:46:10;;;;;;;14.67;5.23;;;20.70;58.50;;;;;;10480588;28;19932;-23
2023/04/22 08:51:12;;;;;;;14.32;5.80;;;20.80;58.30;;;;;;10482847;28;20045;-23
2023/04/22 08:56:14;;;;;;;20.38;6.78;;;20.70;58.50;;;;;;10476179;28;20111;-24
2023/04/22 09:01:18;;;;;;;;;;;20.70;58.30;;;;;;10497557;28;20068;-24
2023/04/22 09:06:21;;;;;;;8.95;5.72;;;20.60;58.50;;;;;;10493523;28;19975;-23
2023/04/22 09:11:23;;;;;;;10.32;4.68;;;20.80;58.20;;;;;;10490028;28;20052;-24
2023/04/22 09:16:26;;;;;;;10.02;4.50;;;20.90;58.00;;;;;;10489700;28;20199;-24
2023/04/22 09:21:28;;;;;;;10.27;3.17;;;21.00;57.80;;;;;;10490610;28;20041;-25
2023/04/22 09:26:30;;;;;;;;;;;21.00;57.70;;;;;;10494394;28;20091;-25
2023/04/22 09:31:34;;;;;;;5.72;2.55;;;21.10;57.60;;;;;;10484910;28;19929;-24
2023/04/22 09:36:36;;;;;;;7.47;2.45;;;21.20;57.50;;;;;;10492015;28;20164;-23
2023/04/22 09:41:40;;;;;;;7.38;2.58;;;21.20;57.10;;;;;;10492999;28;20698;-21
2023/04/22 09:46:44;;;;;;;6.82;2.40;;;21.20;57.10;;;;;;10482004;28;20163;-24
2023/04/22 09:51:46;;;;;;;14.63;9.02;;;21.30;56.60;;;;;;10492423;28;20060;-24
2023/04/22 09:56:49;;;;;;;12.52;8.82;;;21.00;56.70;;;;;;10496358;28;20489;-21
2023/04/22 10:01:54;;;;;;;7.88;4.78;;;20.30;58.30;;;;;;10494752;28;20071;-23
2023/04/22 10:06:56;;;;;;;11.30;6.28;;;20.10;60.10;;;;;;10489564;28;20173;-23
2023/04/22 10:11:58;;;;;;;13.65;8.45;;;20.70;57.20;;;;;;10489906;28;20052;-22
2023/04/22 10:17:03;;;;;;;9.45;6.15;;;20.70;58.30;;;;;;10489953;28;20064;-23
2023/04/22 10:22:06;;;;;;;14.15;8.38;;;20.20;60.90;;;;;;10485725;28;20126;-23
2023/04/22 10:27:11;;;;;;;11.75;8.38;;;19.30;62.50;;;;;;10491371;28;20068;-24
2023/04/22 10:32:29;;;;;;;12.65;8.20;;;20.30;59.50;;;;;;10489021;28;20045;-24
2023/04/22 10:37:31;;;;;;;14.73;7.72;;;20.20;59.10;;;;;;10491381;28;20151;-22
2023/04/22 10:42:33;;;;;;;8.45;6.30;;;19.60;62.80;;;;;;10494064;28;20068;-24
2023/04/22 10:47:39;;;;;;;9.07;6.47;;;20.00;60.30;;;;;;10492405;28;20485;-21
2023/04/22 10:52:43;;;;;;;9.52;6.43;;;20.70;58.10;;;;;;10520585;28;20105;-24
2023/04/22 10:57:46;;;;;;;12.65;8.23;;;20.10;60.20;;;;;;10495039;28;20183;-25
2023/04/22 11:02:54;;;;;;;8.27;6.25;;;20.50;57.90;;;;;;10483989;28;20497;-25
2023/04/22 11:08:02;;;;;;;10.10;6.88;;;20.80;58.10;;;;;;10477399;28;20044;-24
2023/04/22 11:13:06;;;;;;;10.80;5.72;;;21.10;57.20;;;;;;10487359;28;20052;-22
2023/04/22 11:18:13;;;;;;;8.48;5.82;;;21.30;56.70;;;;;;10470479;28;20552;-25
2023/04/22 11:23:19;;;;;;;10.18;5.75;;;21.30;56.90;;;;;;10502480;28;20540;-24
2023/04/22 11:28:21;;;;;;;11.85;6.88;;;21.40;56.60;;;;;;10494792;28;20048;-24
2023/04/22 11:33:25;;;;;;;9.23;5.47;;;21.30;56.80;;;;;;10489028;28;20049;-26
2023/04/22 11:38:27;;;;;;;8.65;5.32;;;21.50;56.80;;;;;;10487953;28;20044;-24
2023/04/22 11:43:29;;;;;;;8.85;5.30;;;21.50;56.80;;;;;;10468739;28;20099;-23
2023/04/22 11:48:32;;;;;;;8.40;5.10;;;21.60;56.60;;;;;;10484004;28;20053;-24
2023/04/22 11:53:34;;;;;;;11.25;5.80;;;21.60;56.50;;;;;;10485191;28;20164;-24
2023/04/22 11:58:39;;;;;;;9.25;5.45;;;21.70;56.40;;;;;;10487374;28;20590;-26
2023/04/22 12:03:42;;;;;;;9.25;5.70;;;21.70;56.40;;;;;;10491485;28;20052;-24
2023/04/22 12:08:48;;;;;;;7.78;4.97;;;21.60;56.60;;;;;;10485237;28;20386;-24
2023/04/22 12:13:50;;;;;;;7.53;5.10;;;21.60;56.40;;;;;;10498343;28;20054;-23
2023/04/22 12:18:54;;;;;;;;;;;21.60;56.50;;;;;;10488884;28;20047;-24
2023/04/22 12:24:03;;;;;;;6.93;4.63;;;21.70;56.40;;;;;;10491452;28;19978;-24
2023/04/22 12:29:05;;;;;;;6.95;4.88;;;21.70;56.30;;;;;;10489605;28;20109;-23
2023/04/22 12:34:08;;;;;;;9.38;4.90;;;21.70;56.30;;;;;;10494632;28;20097;-24
2023/04/22 12:39:11;;;;;;;7.53;3.88;;;21.70;56.20;;;;;;10482899;28;20135;-24
2023/04/22 12:44:13;;;;;;;7.85;4.68;;;21.70;56.10;;;;;;10486157;28;20517;-25
2023/04/22 12:49:16;;;;;;;13.60;5.18;;;21.70;56.10;;;;;;10490866;28;20511;-25
2023/04/22 12:54:18;;;;;;;7.63;4.80;;;21.70;56.10;;;;;;10474450;28;20065;-22
2023/04/22 12:59:20;;;;;;;31.67;19.05;;;21.70;55.90;;;;;;10483767;28;20062;-24
2023/04/22 13:04:23;;;;;;;9.75;5.82;;;21.00;56.00;;;;;;10492793;28;20131;-24
2023/04/22 13:09:26;;;;;;;12.75;5.60;;;21.20;57.00;;;;;;10492222;28;20045;-24
2023/04/22 13:14:28;;;;;;;13.60;8.77;;;21.40;56.20;;;;;;10482127;28;20129;-24
2023/04/22 13:19:31;;;;;;;13.50;5.93;;;21.50;56.00;;;;;;10493413;28;20056;-23
2023/04/22 13:24:33;;;;;;;11.63;6.05;;;21.40;56.20;;;;;;10484343;28;20127;-24
2023/04/22 13:29:35;;;;;;;12.52;6.95;;;21.50;55.80;;;;;;10488767;28;20049;-23
2023/04/22 13:34:39;;;;;;;20.30;9.88;;;21.60;56.30;;;;;;10494450;28;20120;-24
2023/04/22 13:39:41;;;;;;;12.73;7.03;;;21.30;55.90;;;;;;10481528;28;20094;-24
2023/04/22 13:44:43;;;;;;;14.07;8.48;;;21.40;56.00;;;;;;10476160;28;20127;-24
2023/04/22 13:49:46;;;;;;;11.15;6.35;;;21.50;55.80;;;;;;10490452;28;20043;-23
2023/04/22 13:54:48;;;;;;;9.55;6.32;;;21.40;56.20;;;;;;10489902;28;20044;-24
2023/04/22 13:59:50;;;;;;;16.77;9.48;;;21.40;55.90;;;;;;10496549;28;20128;-24
2023/04/22 14:04:55;;;;;;;45.03;24.10;;;20.90;56.20;;;;;;10496804;28;20037;-23
2023/04/22 14:09:57;;;;;;;49.70;26.02;;;19.30;61.20;;;;;;10488889;28;20040;-24
2023/04/22 14:14:59;;;;;;;24.90;13.23;;;17.70;69.70;;;;;;10491815;28;20109;-24
2023/04/22 14:20:03;;;;;;;20.58;11.20;;;17.10;78.90;;;;;;10497714;28;20156;-24
2023/04/22 14:25:09;;;;;;;27.23;15.90;;;17.10;79.70;;;;;;10500991;28;20058;-23
2023/04/22 14:30:12;;;;;;;10.15;5.40;;;18.90;70.10;;;;;;10486037;28;20073;-24
2023/04/22 14:35:19;;;;;;;9.55;6.18;;;20.40;62.60;;;;;;10489305;28;20040;-23
2023/04/22 14:40:25;;;;;;;9.65;5.45;;;19.90;61.90;;;;;;10477090;28;20049;-24
2023/04/22 14:45:29;;;;;;;14.43;9.05;;;20.50;62.90;;;;;;10490848;28;20553;-25
2023/04/22 14:50:33;;;;;;;7.43;4.28;;;19.00;68.30;;;;;;10491518;28;20053;-24
2023/04/22 14:55:36;;;;;;;7.25;4.75;;;20.70;62.50;;;;;;10491898;28;20044;-24
2023/04/22 15:00:38;;;;;;;8.80;4.45;;;20.50;63.00;;;;;;10493135;28;20055;-25
2023/04/22 15:05:42;;;;;;;8.85;4.85;;;21.10;60.50;;;;;;10484734;28;20041;-24
2023/04/22 15:10:44;;;;;;;7.10;4.30;;;21.30;60.00;;;;;;10484996;28;20052;-24
2023/04/22 15:15:46;;;;;;;;;;;21.50;59.60;;;;;;10486266;28;20059;-25
2023/04/22 15:20:50;;;;;;;6.25;3.50;;;21.50;59.20;;;;;;10492914;28;19921;-23
2023/04/22 15:25:53;;;;;;;7.57;4.20;;;21.70;58.90;;;;;;10487649;28;20048;-25
2023/04/22 15:30:55;;;;;;;6.30;3.40;;;21.40;59.60;;;;;;10490826;28;20040;-23
2023/04/22 15:35:58;;;;;;;;;;;21.70;58.60;;;;;;10481784;28;20060;-24
2023/04/22 15:41:00;;;;;;;5.90;3.30;;;21.60;59.00;;;;;;10489548;28;19981;-24
2023/04/22 15:46:02;;;;;;;5.50;3.60;;;21.70;58.20;;;;;;10479850;28;20086;-22
2023/04/22 15:51:05;;;;;;;7.55;4.10;;;21.80;57.90;;;;;;10478268;28;20136;-23
2023/04/22 15:56:07;;;;;;;5.35;3.35;;;21.90;57.50;;;;;;10481792;28;20080;-24
2023/04/22 16:01:09;;;;;;;31.95;16.70;;;22.00;58.00;;;;;;10490785;28;20052;-25
2023/04/22 16:06:12;;;;;;;29.27;16.75;;;21.80;59.60;;;;;;10499175;28;20489;-24
2023/04/22 16:11:15;;;;;;;21.98;13.68;;;21.60;57.50;;;;;;10494624;28;20071;-24
2023/04/22 16:16:17;;;;;;;9.70;5.18;;;21.20;58.50;;;;;;10494515;28;20110;-23
2023/04/22 16:21:21;;;;;;;9.20;4.60;;;21.00;59.80;;;;;;10493037;28;20052;-23
2023/04/22 16:26:22;;;;;;;8.88;4.45;;;21.90;57.40;;;;;;10493094;28;20064;-23
2023/04/22 16:31:24;;;;;;;6.35;4.40;;;20.70;61.30;;;;;;10499308;28;20045;-24
2023/04/22 16:36:27;;;;;;;30.73;18.08;;;21.80;57.90;;;;;;10489675;28;20083;-25
2023/04/22 16:41:30;;;;;;;16.77;6.32;;;20.90;57.90;;;;;;10483317;28;20131;-22
2023/04/22 16:46:31;;;;;;;;;;;21.40;60.60;;;;;;10490586;28;20114;-25
2023/04/22 16:51:34;;;;;;;6.23;4.10;;;22.00;57.70;;;;;;10482838;28;19963;-24
2023/04/22 16:56:37;;;;;;;10.57;7.07;;;22.20;56.90;;;;;;10483699;28;20139;-24
2023/04/22 17:01:39;;;;;;;8.85;4.90;;;22.60;58.50;;;;;;10485926;28;20044;-24
2023/04/22 17:06:43;;;;;;;7.90;4.57;;;22.40;57.10;;;;;;10483923;28;20053;-23
2023/04/22 17:11:45;;;;;;;13.38;5.25;;;22.50;56.40;;;;;;10488241;28;20536;-24
2023/04/22 17:16:46;;;;;;;9.02;5.05;;;22.50;57.40;;;;;;10481947;28;20235;-24
2023/04/22 17:21:50;;;;;;;14.27;6.32;;;22.50;57.30;;;;;;10497757;28;20055;-24
2023/04/22 17:26:52;;;;;;;14.48;8.90;;;22.70;57.70;;;;;;10507431;28;20060;-24
2023/04/22 17:31:53;;;;;;;14.05;7.60;;;22.70;58.30;;;;;;10486706;28;20191;-27
2023/04/22 17:36:57;;;;;;;13.65;7.10;;;22.80;57.90;;;;;;10493530;28;20101;-26
2023/04/22 17:41:59;;;;;;;13.23;7.18;;;23.00;55.30;;;;;;10497789;28;20041;-25
2023/04/22 17:47:01;;;;;;;12.93;7.07;;;23.00;55.00;;;;;;10488704;28;20040;-24
2023/04/22 17:52:05;;;;;;;10.98;6.43;;;23.00;54.20;;;;;;10505587;28;20060;-23
2023/04/22 17:57:08;;;;;;;11.88;6.47;;;23.00;54.00;;;;;;10486701;28;20127;-23
2023/04/22 18:02:11;;;;;;;11.32;6.45;;;23.10;54.00;;;;;;10503839;28;20044;-23
2023/04/22 18:07:14;;;;;;;11.13;6.93;;;23.00;54.00;;;;;;10497297;28;20504;-23
2023/04/22 18:12:16;;;;;;;15.95;8.13;;;23.10;53.60;;;;;;10498984;28;20155;-24
2023/04/22 18:17:19;;;;;;;12.30;6.35;;;23.00;53.60;;;;;;10478543;28;20516;-24
2023/04/22 18:22:22;;;;;;;10.55;5.13;;;23.00;53.60;;;;;;10494777;28;20482;-23
2023/04/22 18:27:24;;;;;;;9.50;4.80;;;23.00;53.50;;;;;;10495234;28;20090;-24
2023/04/22 18:32:26;;;;;;;10.77;4.18;;;23.00;53.60;;;;;;10491787;28;20068;-24
2023/04/22 18:37:29;;;;;;;6.93;4.40;;;23.10;53.70;;;;;;10487417;28;20489;-22
2023/04/22 18:42:31;;;;;;;8.07;3.78;;;23.10;53.90;;;;;;10494700;28;20124;-24
2023/04/22 18:47:33;;;;;;;7.93;4.18;;;23.10;53.90;;;;;;10477394;28;20102;-24
2023/04/22 18:52:36;;;;;;;7.10;3.38;;;23.10;54.30;;;;;;10480004;28;20096;-24
2023/04/22 18:57:38;;;;;;;11.13;3.53;;;23.10;54.50;;;;;;10490095;28;20139;-25
2023/04/22 19:02:40;;;;;;;8.23;3.60;;;23.00;55.00;;;;;;10477745;28;20077;-24
2023/04/22 19:07:43;;;;;;;11.07;4.80;;;23.00;54.70;;;;;;10488874;28;20135;-25
2023/04/22 19:12:45;;;;;;;11.85;4.72;;;22.90;54.80;;;;;;10481522;28;20064;-24
2023/04/22 19:17:47;;;;;;;9.68;5.22;;;22.90;55.20;;;;;;10477375;28;20164;-24
2023/04/22 19:22:52;;;;;;;16.02;8.27;;;22.90;55.40;;;;;;10484496;28;20084;-24
2023/04/22 19:27:53;;;;;;;18.95;9.05;;;22.80;55.40;;;;;;10481418;28;20133;-24
2023/04/22 19:32:55;;;;;;;17.10;8.70;;;22.70;55.50;;;;;;10492458;28;20127;-24
2023/04/22 19:38:00;;;;;;;24.55;11.65;;;22.60;55.60;;;;;;10488038;28;20095;-24
2023/04/22 19:43:02;;;;;;;19.42;11.30;;;22.60;55.70;;;;;;10472420;28;20478;-22
2023/04/22 19:48:04;;;;;;;25.17;11.68;;;22.60;55.90;;;;;;10470963;28;20047;-24
2023/04/22 19:53:10;;;;;;;25.13;12.00;;;22.50;55.90;;;;;;10487076;28;20480;-23
2023/04/22 19:58:12;;;;;;;20.13;11.15;;;22.50;55.90;;;;;;10471370;28;20067;-24
2023/04/22 20:03:14;;;;;;;21.42;12.35;;;22.40;56.00;;;;;;10485109;28;20068;-24
2023/04/22 20:08:19;;;;;;;25.48;13.70;;;22.40;56.10;;;;;;10472042;28;20055;-24
2023/04/22 20:13:21;;;;;;;31.67;13.88;;;22.30;56.20;;;;;;10482086;28;20048;-24
2023/04/22 20:18:25;;;;;;;31.10;15.02;;;22.30;56.30;;;;;;10480298;28;20147;-23
2023/04/22 20:23:28;;;;;;;25.73;12.52;;;22.20;56.40;;;;;;10490355;28;20105;-23
2023/04/22 20:28:43;;;;;;;27.08;13.38;;;22.20;56.50;;;;;;10494957;28;20102;-24
2023/04/22 20:33:46;;;;;;;25.20;13.65;;;22.10;56.50;;;;;;10488846;28;20045;-23
2023/04/22 20:38:50;;;;;;;28.00;14.60;;;22.10;56.60;;;;;;10495011;28;20478;-24
2023/04/22 20:43:53;;;;;;;27.27;13.57;;;22.00;56.70;;;;;;10484674;28;20525;-23
2023/04/22 20:48:55;;;;;;;32.35;14.07;;;21.90;56.90;;;;;;10479206;28;20081;-23
2023/04/22 20:53:58;;;;;;;29.02;14.32;;;21.90;57.00;;;;;;10501138;28;20178;-24
2023/04/22 20:59:00;;;;;;;29.35;15.70;;;21.90;57.10;;;;;;10498006;28;20056;-22
2023/04/22 21:04:03;;;;;;;26.05;13.90;;;21.80;57.20;;;;;;10495425;28;20044;-23
2023/04/22 21:09:07;;;;;;;28.50;14.07;;;21.70;57.40;;;;;;10494140;28;20477;-22
2023/04/22 21:14:11;;;;;;;26.33;14.20;;;21.70;57.30;;;;;;10512350;28;20503;-24
2023/04/22 21:19:13;;;;;;;24.83;13.65;;;21.60;57.40;;;;;;10484986;28;20045;-23
2023/04/22 21:24:18;;;;;;;28.90;14.10;;;21.60;57.50;;;;;;10496457;28;20057;-24
2023/04/22 21:29:20;;;;;;;29.88;15.02;;;21.50;57.70;;;;;;10507707;28;20127;-22
2023/04/22 21:34:22;;;;;;;;;;;21.50;57.70;;;;;;10506164;28;20117;-24
2023/04/22 21:39:25;;;;;;;22.53;11.90;;;21.40;57.40;;;;;;10503078;28;19928;-22
2023/04/22 21:44:27;;;;;;;18.63;9.50;;;21.40;58.00;;;;;;10476882;28;20066;-24
2023/04/22 21:49:29;;;;;;;18.92;9.50;;;21.30;58.20;;;;;;10491418;28;20072;-23
2023/04/22 21:54:32;;;;;;;21.75;10.07;;;21.30;58.10;;;;;;10480019;28;20054;-24
2023/04/22 21:59:34;;;;;;;16.85;9.27;;;21.30;58.20;;;;;;10487999;28;20556;-24
2023/04/22 22:04:36;;;;;;;20.90;10.43;;;21.30;58.00;;;;;;10480492;28;20104;-24
2023/04/22 22:09:39;;;;;;;17.70;10.50;;;21.20;58.10;;;;;;10484460;28;20051;-24
2023/04/22 22:14:42;;;;;;;15.57;8.63;;;21.20;58.20;;;;;;10505693;28;20045;-24
2023/04/22 22:19:44;;;;;;;13.38;8.93;;;21.20;58.20;;;;;;10490700;28;20390;-23
2023/04/22 22:24:47;;;;;;;12.90;7.97;;;21.10;58.10;;;;;;10491443;28;20724;-23
2023/04/22 22:29:49;;;;;;;17.60;9.48;;;21.10;58.00;;;;;;10481066;28;20055;-23
2023/04/22 22:34:53;;;;;;;15.27;9.98;;;21.10;58.10;;;;;;10482851;28;20172;-23
2023/04/22 22:39:57;;;;;;;13.18;8.27;;;21.00;58.40;;;;;;10489986;28;20047;-24
2023/04/22 22:44:58;;;;;;;15.02;8.80;;;21.00;58.40;;;;;;10493268;28;20487;-24
2023/04/22 22:50:00;;;;;;;15.00;9.30;;;21.00;58.40;;;;;;10493020;28;20097;-24
2023/04/22 22:55:04;;;;;;;15.68;8.88;;;20.90;58.50;;;;;;10492976;28;20426;-22
2023/04/22 23:00:08;;;;;;;19.08;10.43;;;20.90;58.60;;;;;;10497875;28;20082;-23
2023/04/22 23:05:10;;;;;;;17.30;9.82;;;20.90;58.50;;;;;;10489316;28;20044;-24
2023/04/22 23:10:13;;;;;;;17.95;8.90;;;20.90;58.60;;;;;;10489254;28;20116;-23
2023/04/22 23:15:15;;;;;;;16.98;9.77;;;20.80;58.80;;;;;;10483867;28;20063;-24
2023/04/22 23:20:17;;;;;;;16.85;9.25;;;20.80;58.70;;;;;;10494868;28;20071;-24
2023/04/22 23:25:21;;;;;;;;;;;20.80;58.70;;;;;;10504009;28;20053;-22
2023/04/22 23:30:23;;;;;;;17.25;9.93;;;20.80;58.70;;;;;;10491388;28;19967;-24
2023/04/22 23:35:26;;;;;;;16.83;9.50;;;20.70;58.60;;;;;;10475022;28;20151;-24
2023/04/22 23:40:29;;;;;;;16.50;9.05;;;20.70;58.90;;;;;;10479096;28;20496;-23
2023/04/22 23:45:31;;;;;;;21.50;10.65;;;20.70;58.80;;;;;;10489942;28;20135;-21
2023/04/22 23:50:33;;;;;;;16.35;9.68;;;20.70;58.70;;;;;;10485956;28;20097;-24
2023/04/22 23:55:37;;;;;;;16.20;9.60;;;20.60;58.40;;;;;;10481910;28;20045;-22
